Aérodrome :
LOGIN :

S'inscrire | Disclaimer

   EN    FR    IT 

 










Légende :    VFR   VFR Marginal   IFR   IFR Intensif   IFR Très Intensif
Visi : 
Plafond : 
>= 8 km
>= 3000ft
5 à 8 km
1000 à 3000 ft
1500m à 5 km
500 à 1000 ft
800 à 1500m
200 à 500 ft
< 800m
< 200 ft
Symboles :   Orages  Brouillard  Fortes neiges  Fortes précipitations  Vent > 20 kt
SIGMETs :   Divers  Orages  Givrage  Turbulence  Onde Orograph.  Cendres Volcan.






- Altitude de l'aérodrome : 138 ft
- Code IATA : BIO


LEBB - Bilbao

DERNIER METAR :
  • 261030Z 29015KT 8000 -DZ SCT024 BKN035 BKN042 10/08 Q1024 RERA TEMPO 3000 RA

METARs EXPIRÉS :
  • 261019Z 28010G22KT 240V310 3000 RA BR SCT025 BKN033 10/08 Q1024 TEMPO 6000 NSW
  • 261015Z 27007KT 230V300 8000 2500NW -RA BCFG SCT025 BKN035 10/07 Q1023 TEMPO 3000 RA
  • 260930Z 27011KT 200V320 8000 -RA SCT025 BKN033 BKN040 10/07 Q1023 TEMPO 3000 RA
  • 260900Z 27010KT 210V300 7000 -RA SCT028 BKN042 09/08 Q1023 TEMPO 3000 RA
  • 260842Z 28007KT 230V320 7000 3000NW -RA BCFG SCT022 BKN032 09/08 Q1022 TEMPO 3000 RA
  • 260822Z 29013KT 3000 RA SCT025 BKN035 09/08 Q1022 TEMPO 6000 NSW
  • 260800Z 26012G22KT 210V300 9999 SCT027 BKN035 10/07 Q1022 TEMPO 3000 RA

TAF TAF LEBB
Valide du 26 à 06h jusqu'au 27 à 06h UTC


260500Z 2606/2706 27012KT 9999 SCT015 BKN025 TX11/2613Z TN07/2606Z
TEMPO 2606/2618 29018G30KT 3000 RADZ BR BKN010 BKN014



MET'MAP, la Météo Aéronautique d'un coup d'oeil ! - Copyright ORBIFLY Décembre 2007 - Disclaimer

ORBIFLY MET'MAP TEAM :

Programmation & Développement : Alexandra Zaïnal
Sur une idée originale de : Baudouin d'Aumeries
Assistance à la programmation : Marc-Olivier Méhu
Soutien technique & logistique : Manuel Goepfert

Contact : metmap@orbifly.com




SOURCES & CREDITS :

   NOAA